createdAt,value
2023-01-11T00:00:57.677Z,1.25
2023-01-11T00:03:43.210Z,1.08
2023-01-11T00:06:28.858Z,1.25
2023-01-11T00:09:16.019Z,1.73
2023-01-11T00:12:01.343Z,1.75
2023-01-11T00:14:46.916Z,1.55
2023-01-11T00:17:32.498Z,1.17
2023-01-11T00:20:19.402Z,1.83
2023-01-11T00:23:04.605Z,2.10
2023-01-11T00:25:50.276Z,1.70
2023-01-11T00:28:35.968Z,1.58
2023-01-11T00:31:21.356Z,2.05
2023-01-11T00:34:06.991Z,1.33
2023-01-11T00:36:52.888Z,1.38
2023-01-11T00:39:38.456Z,1.73
2023-01-11T00:42:42.973Z,1.67
2023-01-11T00:45:47.537Z,1.85
2023-01-11T00:48:32.743Z,1.85
2023-01-11T00:51:18.330Z,3.17
2023-01-11T00:54:03.897Z,1.80
2023-01-11T00:56:49.337Z,2.38
2023-01-11T00:59:35.943Z,1.40
2023-01-11T01:02:22.567Z,1.63
2023-01-11T01:05:08.505Z,1.85
2023-01-11T01:07:54.318Z,1.75
2023-01-11T01:10:39.692Z,2.53
2023-01-11T01:13:43.603Z,2.45
2023-01-11T01:16:31.516Z,2.80
2023-01-11T01:19:17.071Z,2.33
2023-01-11T01:22:03.067Z,1.50
2023-01-11T01:24:48.285Z,2.55
2023-01-11T01:27:34.277Z,2.17
2023-01-11T01:30:19.942Z,3.30
2023-01-11T01:33:05.433Z,2.10
2023-01-11T01:35:51.148Z,2.50
2023-01-11T01:41:20.915Z,3.67
2023-01-11T01:44:51.800Z,2.33
2023-01-11T01:47:53.447Z,2.17
2023-01-11T01:50:45.105Z,2.05
2023-01-11T01:53:41.911Z,1.63
2023-01-11T01:56:34.565Z,2.00
2023-01-11T01:59:21.982Z,2.92
2023-01-11T02:02:08.032Z,1.92
2023-01-11T02:04:56.333Z,2.58
2023-01-11T02:07:43.453Z,2.80
2023-01-11T02:10:29.169Z,2.08
2023-01-11T02:13:15.206Z,2.00
2023-01-11T02:16:09.153Z,2.33
2023-01-11T02:18:56.649Z,2.40
2023-01-11T02:22:02.964Z,2.53
2023-01-11T02:25:00.383Z,2.50
2023-01-11T02:28:16.722Z,2.42
2023-01-11T02:31:16.200Z,3.30
2023-01-11T02:34:11.079Z,2.38
2023-01-11T02:37:18.242Z,2.40
2023-01-11T02:40:17.116Z,3.40
2023-01-11T02:43:24.109Z,2.78
2023-01-11T02:46:42.467Z,2.97
2023-01-11T02:49:33.221Z,3.63
2023-01-11T02:52:32.715Z,2.60
2023-01-11T02:55:23.207Z,2.28
2023-01-11T02:58:12.210Z,2.35
2023-01-11T03:00:58.696Z,2.70
2023-01-11T03:03:43.995Z,3.15
2023-01-11T03:06:34.427Z,2.90
2023-01-11T03:09:38.653Z,3.20
2023-01-11T03:12:52.295Z,2.85
2023-01-11T03:16:04.391Z,3.83
2023-01-11T03:19:27.606Z,3.03
2023-01-11T03:22:40.583Z,3.08
2023-01-11T03:25:41.149Z,5.20
2023-01-11T03:28:37.803Z,3.10
2023-01-11T03:31:26.399Z,3.08
2023-01-11T03:34:22.914Z,2.83
2023-01-11T03:37:14.672Z,3.05
2023-01-11T03:40:06.828Z,3.13
2023-01-11T03:43:13.436Z,3.22
2023-01-11T03:46:08.183Z,4.57
2023-01-11T03:48:59.288Z,2.95
2023-01-11T03:51:46.236Z,3.10
2023-01-11T03:54:33.233Z,2.85
2023-01-11T03:57:25.828Z,2.38
2023-01-11T04:00:11.943Z,2.53
2023-01-11T04:02:57.259Z,3.00
2023-01-11T04:05:45.982Z,2.88
2023-01-11T04:08:32.003Z,4.95
2023-01-11T04:11:17.746Z,2.70
2023-01-11T04:14:03.260Z,2.90
2023-01-11T04:16:48.764Z,3.13
2023-01-11T04:19:34.288Z,2.42
2023-01-11T04:22:19.740Z,2.40
2023-01-11T04:25:05.773Z,3.33
2023-01-11T04:27:51.234Z,3.50
2023-01-11T04:30:37.255Z,4.53
2023-01-11T04:33:23.134Z,2.70
2023-01-11T04:36:10.770Z,4.10
2023-01-11T04:38:56.012Z,3.30
2023-01-11T04:42:00.167Z,2.75
2023-01-11T04:44:50.513Z,3.67
2023-01-11T04:47:36.120Z,3.70
2023-01-11T04:50:22.483Z,3.78
2023-01-11T04:53:08.226Z,3.40
2023-01-11T04:55:53.619Z,3.28
2023-01-11T04:58:39.058Z,2.75
2023-01-11T05:01:24.727Z,3.25
2023-01-11T05:04:12.080Z,3.88
2023-01-11T05:06:58.717Z,3.08
2023-01-11T05:09:44.186Z,2.70
2023-01-11T05:12:29.770Z,4.07
2023-01-11T05:15:15.353Z,3.88
2023-01-11T05:18:00.663Z,4.43
2023-01-11T05:20:49.280Z,4.07
2023-01-11T05:23:36.256Z,4.60
2023-01-11T05:26:27.895Z,3.70
2023-01-11T05:29:16.432Z,3.63
2023-01-11T05:32:02.151Z,3.53
2023-01-11T05:34:47.824Z,4.25
2023-01-11T05:37:33.247Z,3.10
2023-01-11T05:40:18.886Z,3.95
2023-01-11T05:43:04.666Z,4.18
2023-01-11T05:45:50.229Z,5.38
2023-01-11T05:48:35.637Z,3.40
2023-01-11T05:51:21.575Z,3.17
2023-01-11T05:54:10.417Z,3.00
2023-01-11T05:56:57.539Z,4.30
2023-01-11T05:59:42.735Z,3.17
2023-01-11T06:02:28.386Z,3.85
2023-01-11T06:05:13.983Z,3.17
2023-01-11T06:07:59.455Z,4.03
2023-01-11T06:10:54.252Z,4.65
2023-01-11T06:13:39.553Z,2.70
2023-01-11T06:16:24.961Z,5.45
2023-01-11T06:19:11.588Z,3.88
2023-01-11T06:21:57.175Z,5.70
2023-01-11T06:24:43.042Z,4.72
2023-01-11T06:27:28.334Z,5.95
2023-01-11T06:30:13.999Z,5.05
2023-01-11T06:33:28.986Z,2.97
2023-01-11T06:36:15.771Z,4.88
2023-01-11T06:39:01.495Z,3.55
2023-01-11T06:41:47.007Z,4.22
2023-01-11T06:44:34.372Z,3.67
2023-01-11T06:47:20.026Z,4.05
2023-01-11T06:50:06.099Z,2.83
2023-01-11T06:52:59.133Z,2.83
2023-01-11T06:55:45.083Z,5.05
2023-01-11T06:58:31.092Z,3.17
2023-01-11T07:01:18.175Z,3.70
2023-01-11T07:04:03.915Z,3.28
2023-01-11T07:06:49.182Z,3.92
2023-01-11T07:09:34.825Z,3.13
2023-01-11T07:12:20.466Z,3.55
2023-01-11T07:15:09.518Z,3.88
2023-01-11T07:17:59.320Z,3.42
2023-01-11T07:20:44.812Z,2.70
2023-01-11T07:23:30.378Z,5.30
2023-01-11T07:26:17.369Z,4.38
2023-01-11T07:29:02.828Z,3.88
2023-01-11T07:31:48.516Z,3.17
2023-01-11T07:34:34.607Z,4.10
2023-01-11T07:37:28.330Z,3.60
2023-01-11T07:40:16.344Z,3.50
2023-01-11T07:43:18.995Z,4.25
2023-01-11T07:46:04.701Z,2.63
2023-01-11T07:48:50.186Z,3.53
2023-01-11T07:51:35.920Z,3.00
2023-01-11T07:54:21.435Z,3.67
2023-01-11T07:57:06.640Z,3.00
2023-01-11T07:59:51.946Z,3.78
2023-01-11T08:02:37.754Z,3.90
2023-01-11T08:05:23.179Z,3.80
2023-01-11T08:08:08.829Z,2.35
2023-01-11T08:11:12.903Z,2.20
2023-01-11T08:14:16.920Z,2.28
2023-01-11T08:17:02.927Z,3.53
2023-01-11T08:19:48.768Z,2.90
2023-01-11T08:22:34.479Z,3.38
2023-01-11T08:25:21.228Z,2.65
2023-01-11T08:28:08.110Z,2.45
2023-01-11T08:30:53.723Z,2.60
2023-01-11T08:33:39.179Z,2.47
2023-01-11T08:36:26.880Z,2.65
2023-01-11T08:39:12.616Z,2.55
2023-01-11T08:41:58.966Z,1.95
2023-01-11T08:44:44.831Z,2.53
2023-01-11T08:47:30.536Z,2.70
2023-01-11T08:50:17.338Z,2.15
2023-01-11T08:53:03.575Z,3.78
2023-01-11T08:55:50.679Z,3.17
2023-01-11T08:58:36.322Z,3.03
2023-01-11T09:01:22.147Z,3.20
2023-01-11T09:04:23.122Z,3.15
2023-01-11T09:07:09.124Z,2.85
2023-01-11T09:09:54.699Z,2.72
2023-01-11T09:12:40.257Z,3.92
2023-01-11T09:15:26.389Z,2.60
2023-01-11T09:18:12.195Z,2.75
2023-01-11T09:20:57.458Z,3.92
2023-01-11T09:23:45.067Z,3.92
2023-01-11T09:26:30.808Z,3.00
2023-01-11T09:29:16.445Z,2.70
2023-01-11T09:32:01.933Z,2.80
2023-01-11T09:34:49.625Z,2.78
2023-01-11T09:37:53.778Z,3.03
2023-01-11T09:40:55.281Z,3.35
2023-01-11T09:43:50.729Z,3.83
2023-01-11T09:46:42.187Z,3.63
2023-01-11T09:49:38.332Z,2.78
2023-01-11T09:52:38.316Z,3.97
2023-01-11T09:55:33.039Z,3.00
2023-01-11T09:58:32.364Z,3.83
2023-01-11T10:01:31.430Z,5.07
2023-01-11T10:04:40.291Z,2.70
2023-01-11T10:18:27.367Z,3.53
2023-01-11T10:18:29.800Z,3.63
2023-01-11T10:21:15.993Z,2.20
2023-01-11T10:24:12.630Z,2.53
2023-01-11T10:27:08.473Z,3.55
2023-01-11T10:29:58.016Z,2.80
2023-01-11T10:32:54.373Z,2.97
2023-01-11T10:36:20.846Z,2.58
2023-01-11T10:39:32.240Z,2.42
2023-01-11T10:42:28.682Z,2.88
2023-01-11T10:45:41.347Z,2.50
2023-01-11T10:48:30.684Z,3.83
2023-01-11T10:51:37.219Z,3.10
2023-01-11T10:54:33.177Z,2.30
2023-01-11T10:57:33.718Z,3.03
2023-01-11T11:00:42.504Z,2.88
2023-01-11T11:04:12.438Z,2.67
2023-01-11T11:07:18.368Z,2.75
2023-01-11T11:10:31.799Z,2.67
2023-01-11T11:13:36.194Z,1.98
2023-01-11T11:16:24.498Z,2.58
2023-01-11T11:19:14.794Z,2.78
2023-01-11T11:22:01.132Z,2.63
2023-01-11T11:24:59.751Z,2.55
2023-01-11T11:27:50.221Z,2.78
2023-01-11T11:30:43.395Z,1.80
2023-01-11T11:33:37.669Z,2.42
2023-01-11T11:36:24.962Z,1.92
2023-01-11T11:39:11.674Z,2.13
2023-01-11T11:42:14.164Z,2.03
2023-01-11T11:45:11.663Z,1.90
2023-01-11T11:48:02.277Z,1.75
2023-01-11T11:50:49.381Z,2.08
2023-01-11T11:53:53.404Z,1.92
2023-01-11T11:56:39.038Z,1.70
2023-01-11T11:59:28.385Z,1.67
2023-01-11T12:02:30.979Z,2.17
2023-01-11T12:05:16.766Z,2.00
2023-01-11T12:08:03.329Z,2.83
2023-01-11T12:10:57.598Z,2.00
2023-01-11T12:13:43.328Z,2.95
2023-01-11T12:16:41.364Z,1.73
2023-01-11T12:19:42.853Z,2.10
2023-01-11T12:22:29.279Z,2.00
2023-01-11T12:25:14.895Z,1.88
2023-01-11T12:28:28.410Z,2.40
2023-01-11T12:31:16.513Z,2.17
2023-01-11T12:34:28.678Z,2.33
2023-01-11T12:37:25.813Z,2.20
2023-01-11T12:40:28.711Z,1.60
2023-01-11T12:43:50.312Z,2.50
2023-01-11T12:46:57.559Z,2.33
2023-01-11T12:50:03.029Z,2.40
2023-01-11T12:53:38.866Z,3.80
2023-01-11T12:56:42.260Z,1.60
2023-01-11T12:59:43.169Z,2.33
2023-01-11T13:02:39.087Z,2.95
2023-01-11T13:05:49.909Z,2.50
2023-01-11T13:08:41.663Z,1.67
2023-01-11T13:12:00.710Z,2.67
2023-01-11T13:14:53.906Z,2.22
2023-01-11T13:17:58.879Z,2.05
2023-01-11T13:21:02.232Z,2.85
2023-01-11T13:23:54.687Z,3.60
2023-01-11T13:26:47.621Z,2.17
2023-01-11T13:29:40.089Z,2.38
2023-01-11T13:32:37.526Z,3.13
2023-01-11T13:35:49.953Z,3.47
2023-01-11T13:39:02.469Z,2.67
2023-01-11T13:41:54.888Z,2.85
2023-01-11T13:44:46.468Z,2.65
2023-01-11T13:47:38.200Z,2.63
2023-01-11T13:50:42.032Z,2.67
2023-01-11T13:56:42.572Z,0.80
2023-01-11T13:59:45.656Z,1.42
2023-01-11T14:02:42.364Z,0.63
2023-01-11T14:05:38.969Z,1.10
2023-01-11T14:08:51.888Z,0.50
2023-01-11T14:12:01.644Z,0.50
2023-01-11T14:15:18.283Z,0.63
2023-01-11T14:18:16.695Z,0.70
2023-01-11T14:21:17.530Z,0.80
2023-01-11T14:24:04.530Z,1.15
2023-01-11T14:26:55.923Z,0.95
2023-01-11T14:30:10.256Z,0.80
2023-01-11T14:33:21.339Z,1.25
2023-01-11T14:36:44.225Z,1.48
2023-01-11T14:39:43.302Z,1.10
2023-01-11T14:42:53.745Z,1.63
2023-01-11T14:46:05.941Z,1.48
2023-01-11T14:49:18.136Z,1.35
2023-01-11T14:52:39.642Z,1.52
2023-01-11T14:55:35.704Z,2.05
2023-01-11T14:58:32.289Z,2.13
2023-01-11T15:01:20.758Z,1.70
2023-01-11T15:04:23.296Z,2.30
2023-01-11T15:07:42.438Z,2.63
2023-01-11T15:11:04.752Z,2.85
2023-01-11T15:14:27.197Z,3.47
2023-01-11T15:17:39.825Z,4.88
2023-01-11T15:20:28.171Z,2.20
2023-01-11T15:23:22.281Z,4.13
2023-01-11T15:26:10.650Z,3.15
2023-01-11T15:29:03.406Z,3.97
2023-01-11T15:32:04.870Z,3.35
2023-01-11T15:35:07.396Z,5.00
2023-01-11T15:38:00.514Z,4.32
2023-01-11T15:40:49.293Z,4.03
2023-01-11T15:43:54.704Z,4.80
2023-01-11T15:47:20.385Z,5.13
2023-01-11T15:50:52.985Z,3.67
2023-01-11T15:54:04.007Z,5.25
2023-01-11T15:57:24.434Z,6.93
2023-01-11T16:00:46.269Z,5.40
2023-01-11T16:03:49.735Z,5.57
2023-01-11T16:06:53.150Z,2.28
2023-01-11T16:10:17.918Z,2.35
2023-01-11T16:13:39.739Z,3.22
2023-01-11T16:16:29.267Z,3.47
2023-01-11T16:19:20.240Z,4.78
2023-01-11T16:22:16.228Z,2.88
2023-01-11T16:25:03.166Z,4.80
2023-01-11T16:27:54.075Z,4.05
2023-01-11T16:30:41.569Z,2.60
2023-01-11T16:33:32.078Z,1.65
2023-01-11T16:36:24.399Z,2.75
2023-01-11T16:39:15.264Z,2.33
2023-01-11T16:42:07.689Z,2.47
2023-01-11T16:45:01.699Z,1.42
2023-01-11T16:48:04.523Z,2.55
2023-01-11T16:51:04.191Z,1.95
2023-01-11T16:53:57.995Z,1.60
2023-01-11T16:56:49.770Z,1.60
2023-01-11T16:59:35.573Z,1.00
2023-01-11T17:02:36.021Z,0.93
2023-01-11T17:05:24.753Z,1.23
2023-01-11T17:08:29.626Z,1.27
2023-01-11T17:11:29.487Z,1.17
2023-01-11T17:14:48.829Z,1.73
2023-01-11T17:17:37.039Z,2.30
2023-01-11T17:20:28.879Z,1.80
2023-01-11T17:23:17.606Z,2.25
2023-01-11T17:26:05.070Z,2.50
2023-01-11T17:28:57.380Z,2.50
2023-01-11T17:31:43.203Z,2.60
2023-01-11T17:34:38.367Z,2.33
2023-01-11T17:37:24.992Z,2.45
2023-01-11T17:40:21.015Z,2.88
2023-01-11T17:43:36.569Z,2.22
2023-01-11T17:46:26.818Z,3.30
2023-01-11T17:49:22.837Z,4.05
2023-01-11T17:52:21.042Z,2.10
2023-01-11T17:55:21.400Z,2.35
2023-01-11T17:58:19.813Z,2.83
2023-01-11T18:01:08.676Z,2.35
2023-01-11T18:03:57.851Z,2.10
2023-01-11T18:06:45.308Z,2.53
2023-01-11T18:09:33.712Z,2.60
2023-01-11T18:12:32.701Z,1.95
2023-01-11T18:15:23.895Z,1.90
2023-01-11T18:18:42.248Z,2.05
2023-01-11T18:21:40.245Z,1.52
2023-01-11T18:24:33.357Z,1.58
2023-01-11T18:27:26.275Z,1.23
2023-01-11T18:30:31.936Z,1.50
2023-01-11T18:33:20.148Z,1.80
2023-01-11T18:36:24.883Z,1.98
2023-01-11T18:39:12.856Z,2.08
2023-01-11T18:42:08.781Z,2.03
2023-01-11T18:44:56.485Z,2.65
2023-01-11T18:47:42.682Z,2.22
2023-01-11T18:50:29.411Z,2.65
2023-01-11T18:53:16.386Z,3.47
2023-01-11T18:56:02.021Z,4.30
2023-01-11T18:58:47.405Z,3.17
2023-01-11T19:01:46.893Z,3.50
2023-01-11T19:04:39.892Z,3.60
2023-01-11T19:07:34.325Z,3.97
2023-01-11T19:10:22.843Z,4.38
2023-01-11T19:13:08.982Z,4.32
2023-01-11T19:15:54.632Z,3.83
2023-01-11T19:18:40.515Z,4.07
2023-01-11T19:21:25.877Z,4.38
2023-01-11T19:24:14.217Z,3.28
2023-01-11T19:27:00.030Z,3.33
2023-01-11T19:29:49.242Z,4.55
2023-01-11T19:32:35.013Z,3.88
2023-01-11T19:35:22.219Z,3.30
2023-01-11T19:38:07.842Z,3.92
2023-01-11T19:40:53.697Z,3.28
2023-01-11T19:43:44.940Z,4.63
2023-01-11T19:46:32.266Z,3.10
2023-01-11T19:49:18.492Z,4.03
2023-01-11T19:52:05.671Z,4.80
2023-01-11T19:54:51.494Z,3.42
2023-01-11T19:57:37.738Z,3.10
2023-01-11T20:00:23.641Z,2.90
2023-01-11T20:03:09.480Z,3.60
2023-01-11T20:06:04.680Z,3.00
2023-01-11T20:08:51.601Z,3.17
2023-01-11T20:11:37.689Z,3.17
2023-01-11T20:14:23.572Z,3.53
2023-01-11T20:17:09.299Z,4.72
2023-01-11T20:19:55.310Z,3.67
2023-01-11T20:22:45.336Z,4.43
2023-01-11T20:25:31.030Z,4.20
2023-01-11T20:28:18.892Z,3.75
2023-01-11T20:31:07.038Z,4.47
2023-01-11T20:33:53.321Z,4.82
2023-01-11T20:36:39.482Z,5.20
2023-01-11T20:39:26.024Z,4.75
2023-01-11T20:42:12.672Z,3.67
2023-01-11T20:44:58.672Z,4.80
2023-01-11T20:47:44.283Z,5.32
2023-01-11T20:50:30.574Z,5.78
2023-01-11T20:53:16.437Z,5.75
2023-01-11T20:56:05.488Z,4.97
2023-01-11T20:58:53.628Z,5.75
2023-01-11T21:01:40.500Z,4.65
2023-01-11T21:04:26.423Z,4.88
2023-01-11T21:07:12.807Z,5.50
2023-01-11T21:09:58.651Z,5.13
2023-01-11T21:12:44.916Z,6.22
2023-01-11T21:15:30.479Z,5.43
2023-01-11T21:18:17.190Z,5.63
2023-01-11T21:21:17.327Z,5.10
2023-01-11T21:24:07.430Z,5.38
2023-01-11T21:26:53.358Z,7.25
2023-01-11T21:29:39.136Z,6.03
2023-01-11T21:32:24.733Z,5.53
2023-01-11T21:35:10.351Z,5.38
2023-01-11T21:37:55.770Z,5.78
2023-01-11T21:40:54.871Z,6.65
2023-01-11T21:43:42.702Z,5.95
2023-01-11T21:46:28.099Z,4.90
2023-01-11T21:49:14.510Z,3.92
2023-01-11T21:52:00.800Z,4.78
2023-01-11T21:54:46.426Z,4.60
2023-01-11T21:57:31.966Z,4.70
2023-01-11T22:00:17.703Z,5.32
2023-01-11T22:03:04.074Z,5.03
2023-01-11T22:05:49.408Z,3.58
2023-01-11T22:08:36.247Z,4.53
2023-01-11T22:11:25.394Z,4.13
2023-01-11T22:14:11.058Z,5.43
2023-01-11T22:16:56.988Z,3.58
2023-01-11T22:19:42.743Z,4.78
2023-01-11T22:22:29.221Z,4.97
2023-01-11T22:25:15.911Z,3.85
2023-01-11T22:28:01.685Z,3.55
2023-01-11T22:30:47.095Z,3.95
2023-01-11T22:33:32.441Z,4.45
2023-01-11T22:36:21.412Z,4.40
2023-01-11T22:39:07.007Z,4.47
2023-01-11T22:41:52.727Z,3.88
2023-01-11T22:44:37.897Z,4.80
2023-01-11T22:47:26.902Z,3.83
2023-01-11T22:50:12.533Z,3.92
2023-01-11T22:53:02.052Z,5.47
2023-01-11T22:55:58.452Z,4.47
2023-01-11T22:58:48.970Z,3.95
2023-01-11T23:01:36.895Z,4.53
2023-01-11T23:04:22.551Z,2.88
2023-01-11T23:07:08.681Z,3.75
2023-01-11T23:09:54.407Z,3.50
2023-01-11T23:13:01.886Z,3.30
2023-01-11T23:15:52.520Z,4.05
2023-01-11T23:18:38.055Z,4.22
2023-01-11T23:21:23.928Z,3.80
2023-01-11T23:24:10.752Z,3.25
2023-01-11T23:26:56.626Z,4.97
2023-01-11T23:29:42.453Z,3.30
2023-01-11T23:32:29.067Z,3.97
2023-01-11T23:35:14.747Z,4.55
2023-01-11T23:38:00.278Z,4.68
2023-01-11T23:41:04.320Z,5.10
2023-01-11T23:43:49.899Z,5.75
2023-01-11T23:46:54.564Z,5.57
2023-01-11T23:49:40.141Z,5.93
2023-01-11T23:52:28.070Z,5.57
2023-01-11T23:55:13.997Z,6.20
2023-01-11T23:58:09.971Z,5.50
